Latest Weather Observations for Condobolin Airport

IDN60801

Issued at 6:23 pm EST Saturday 9 May 2026 (issued every 10 minutes, with the page automatically refreshed every 10 minutes)

About weather observations | Map of weather stations | Latest weather observations for NSW | Other Formats
Station Details ID: 050137 Name: CONDOBOLIN AIRPORT AWS Lat: -33.07 Lon: 147.21 Height: 192.6 m
Data from the previous 72 hours. | See also: Recent months at Condobolin Airport
Date/Time
EST
Temp
°C
App
Temp
°C
Dew
Point
°C
Rel
Hum
%
Delta-T
°C
Wind Press
QNH
hPa
Press
MSL
hPa
Rain since
9am
mm
Dir  Spd
km/h
Gust
km/h
Spd
kts
Gust
kts
09/06:00pm 16.0 14.1 7.7 58 4.2 S 7 11 4 6 1025.4 1025.4 0.0
09/05:30pm 16.8 14.6 8.0 56 4.5 S 9 13 5 7 1025.2 1025.2 0.0
09/05:00pm 18.1 15.1 7.8 51 5.3 S 13 15 7 8 1025.0 1025.0 0.0
09/04:30pm 18.6 15.2 7.7 49 5.6 SSW 15 20 8 11 1024.5 1024.6 0.0
09/04:00pm 19.0 15.6 7.8 48 5.8 SSW 15 24 8 13 1024.4 1024.5 0.0
09/03:30pm 19.3 16.0 8.0 48 5.9 SSW 15 20 8 11 1024.4 1024.5 0.0
09/03:00pm 19.2 15.3 7.3 46 6.1 S 17 22 9 12 1024.4 1024.5 0.0
09/02:30pm 19.5 16.6 8.2 48 5.9 SW 13 20 7 11 1024.4 1024.5 0.0
09/02:00pm 18.6 14.8 7.4 48 5.7 SW 17 26 9 14 1024.6 1024.7 0.0
09/01:30pm 18.6 15.6 7.7 49 5.6 SSW 13 24 7 13 1025.0 1025.0 0.0
09/01:00pm 18.3 14.9 7.7 50 5.4 SSW 15 22 8 12 1025.2 1025.2 0.0
09/12:30pm 17.5 14.5 7.8 53 5.0 SSW 13 19 7 10 1025.6 1025.6 0.0
09/12:00pm 17.5 15.0 8.4 55 4.7 SSW 11 20 6 11 1026.0 1026.0 0.0
09/11:30am 16.9 13.7 8.3 57 4.4 SSW 15 20 8 11 1026.3 1026.3 0.0
09/11:00am 16.0 13.2 8.5 61 3.8 SSW 13 20 7 11 1026.5 1026.5 0.0
09/10:30am 15.1 13.0 8.1 63 3.5 SSW 9 15 5 8 1026.7 1026.7 0.0
09/10:00am 14.5 12.8 8.2 66 3.2 SSW 7 13 4 7 1026.8 1026.8 0.0
09/09:30am 13.4 11.1 8.9 74 2.3 SW 11 15 6 8 1026.7 1026.7 0.0
09/09:00am 12.2 10.0 9.4 83 1.4 SW 11 13 6 7 1026.9 1026.9 0.0
09/08:30am 10.4 8.5 9.2 92 0.6 SW 9 11 5 6 1026.8 1026.8 0.0
09/08:00am 9.4 8.4 8.9 97 0.2 WNW 4 7 2 4 1026.5 1026.5 0.0
09/07:30am 6.6 5.7 6.2 97 0.2 CALM 0 0 0 0 1026.3 1026.3 0.0
09/07:00am 6.1 3.8 5.7 97 0.2 W 7 9 4 5 1025.9 1025.9 0.0
09/06:30am 6.0 3.3 5.4 96 0.3 W 9 9 5 5 1025.7 1025.7 0.0
09/06:00am 6.3 3.7 5.9 97 0.2 WNW 9 11 5 6 1025.2 1025.2 0.0
09/05:30am 6.6 4.0 6.2 97 0.2 WNW 9 9 5 5 1025.1 1025.1 0.0
09/05:00am 6.7 4.5 6.1 96 0.3 WNW 7 9 4 5 1025.0 1025.0 0.0
09/04:30am 7.1 4.6 6.5 96 0.3 WNW 9 11 5 6 1024.6 1024.7 0.0
09/04:00am 7.1 4.9 6.4 95 0.3 WNW 7 9 4 5 1024.8 1024.9 0.0
09/03:30am 7.3 4.7 6.2 93 0.5 WSW 9 9 5 5 1024.6 1024.7 0.0
09/03:00am 8.4 6.0 7.0 91 0.7 SW 9 11 5 6 1024.7 1024.8 0.0
09/02:30am 9.3 6.7 7.6 89 0.8 SW 11 15 6 8 1024.6 1024.7 0.0
09/02:00am 9.8 7.3 8.1 89 0.8 WSW 11 15 6 8 1024.5 1024.6 0.0
09/01:30am 8.9 6.6 7.5 91 0.7 W 9 11 5 6 1024.5 1024.6 0.0
09/01:00am 9.2 6.9 7.6 90 0.8 W 9 11 5 6 1024.7 1024.8 0.0
09/12:30am 9.2 7.3 7.5 89 0.8 W 7 11 4 6 1024.8 1024.9 0.0
09/12:00am 10.1 7.5 7.9 86 1.1 W 11 13 6 7 1024.8 1024.9 0.0
 
Date/Time
EST
Temp
°C
App
Temp
°C
Dew
Point
°C
Rel
Hum
%
Delta-T
°C
Wind Press
QNH
hPa
Press
MSL
hPa
Rain since
9am
mm
Dir  Spd
km/h
Gust
km/h
Spd
kts
Gust
kts
08/11:30pm 10.4 8.1 7.6 83 1.4 WSW 9 11 5 6 1025.1 1025.1 0.0
08/11:00pm 11.0 8.5 8.1 82 1.4 WSW 11 13 6 7 1025.0 1025.0 0.0
08/10:30pm 10.9 8.7 8.0 82 1.4 WSW 9 11 5 6 1025.3 1025.3 0.0
08/10:00pm 11.2 9.6 8.2 82 1.5 WSW 6 9 3 5 1025.2 1025.2 0.0
08/09:30pm 11.8 10.3 8.6 81 1.6 W 6 7 3 4 1025.2 1025.2 0.0
08/09:00pm 12.0 10.3 8.3 78 1.8 W 7 11 4 6 1025.0 1025.0 0.0
08/08:30pm 12.7 10.2 8.4 75 2.2 W 11 15 6 8 1024.7 1024.8 0.0
08/08:00pm 13.4 11.0 8.5 72 2.5 W 11 13 6 7 1024.8 1024.9 0.0
08/07:30pm 13.5 11.1 8.6 72 2.5 W 11 13 6 7 1024.7 1024.8 0.0
08/07:00pm 13.4 11.4 8.7 73 2.4 WSW 9 11 5 6 1024.6 1024.7 0.0
08/06:30pm 14.3 11.4 8.3 67 3.0 W 13 17 7 9 1024.2 1024.3 0.0
08/06:00pm 14.8 11.6 8.3 65 3.3 WSW 15 20 8 11 1024.0 1024.0 0.0
08/05:30pm 15.0 11.4 8.3 64 3.4 WSW 17 24 9 13 1024.0 1024.0 0.0
08/05:00pm 15.3 11.1 8.1 62 3.6 SW 20 26 11 14 1023.8 1023.8 0.0
08/04:30pm 15.5 10.5 8.0 61 3.8 SW 24 35 13 19 1023.8 1023.8 0.0
08/04:00pm 16.0 10.2 8.0 59 4.1 SW 28 37 15 20 1023.5 1023.5 0.0
08/03:30pm 16.1 11.4 7.8 58 4.2 SW 22 30 12 16 1023.3 1023.3 0.0
08/03:00pm 16.2 10.7 7.7 57 4.3 WSW 26 32 14 17 1023.2 1023.2 0.0
08/02:30pm 16.1 10.3 7.8 58 4.2 WSW 28 35 15 19 1023.3 1023.3 0.0
08/02:00pm 16.5 11.5 8.0 57 4.3 WSW 24 35 13 19 1023.2 1023.2 0.0
08/01:30pm 16.0 10.5 7.7 58 4.2 WSW 26 35 14 19 1023.6 1023.6 0.0
08/01:00pm 15.4 10.2 7.4 59 4.0 WSW 24 32 13 17 1023.7 1023.7 0.0
08/12:30pm 16.0 11.4 8.2 60 4.0 WSW 22 32 12 17 1024.1 1024.2 0.0
08/12:00pm 15.3 10.1 7.3 59 4.0 WSW 24 35 13 19 1024.8 1024.9 0.0
08/11:30am 14.2 9.8 7.3 63 3.4 WSW 20 32 11 17 1025.4 1025.4 0.0
08/11:00am 12.7 8.3 7.2 69 2.7 WSW 20 28 11 15 1025.7 1025.7 0.0
08/10:30am 12.0 7.4 6.3 68 2.7 WSW 20 28 11 15 1026.0 1026.0 0.0
08/10:00am 11.6 7.1 6.1 69 2.6 WSW 19 24 10 13 1026.0 1026.0 0.0
08/09:30am 11.4 6.9 5.9 69 2.6 WSW 19 22 10 12 1026.2 1026.2 0.0
08/09:00am 9.6 4.9 5.0 73 2.1 WSW 19 26 10 14 1026.1 1026.1 0.2
08/08:30am 8.7 5.1 5.1 78 1.6 W 13 22 7 12 1025.9 1025.9 0.2
08/08:00am 7.1 3.6 3.5 78 1.5 WNW 11 15 6 8 1025.6 1025.6 0.2
08/07:30am 5.9 2.7 3.1 82 1.2 WNW 9 11 5 6 1025.3 1025.3 0.2
08/07:00am 4.9 1.2 2.4 84 1.0 WNW 11 13 6 7 1025.0 1025.0 0.2
08/06:30am 5.0 1.7 2.2 82 1.1 W 9 13 5 7 1025.1 1025.1 0.2
08/06:00am 4.6 0.9 2.5 86 0.9 WNW 11 15 6 8 1024.8 1024.9 0.2
08/05:30am 4.9 1.6 2.4 84 1.0 WNW 9 11 5 6 1024.8 1024.9 0.2
08/05:00am 5.7 1.6 2.4 79 1.4 W 13 17 7 9 1024.7 1024.8 0.2
08/04:30am 5.7 1.6 2.4 79 1.4 W 13 17 7 9 1024.5 1024.6 0.2
08/04:00am 5.6 1.9 2.1 78 1.4 W 11 15 6 8 1024.4 1024.5 0.2
08/03:30am 5.8 1.7 2.3 78 1.4 WNW 13 15 7 8 1024.3 1024.4 0.2
08/03:00am 5.9 2.2 2.4 78 1.4 W 11 15 6 8 1024.7 1024.8 0.2
08/02:30am 5.8 1.7 2.1 77 1.5 WNW 13 15 7 8 1024.8 1024.9 0.2
08/02:00am 5.7 2.0 2.2 78 1.4 WNW 11 17 6 9 1025.2 1025.2 0.2
08/01:30am 5.8 2.4 1.7 75 1.7 W 9 11 5 6 1025.3 1025.3 0.2
08/01:00am 6.3 2.5 1.6 72 1.9 W 11 13 6 7 1025.5 1025.5 0.2
08/12:30am 6.4 2.2 1.5 71 2.0 W 13 15 7 8 1025.5 1025.5 0.2
08/12:00am 6.2 2.4 1.5 72 1.9 W 11 13 6 7 1025.6 1025.6 0.2
 
Date/Time
EST
Temp
°C
App
Temp
°C
Dew
Point
°C
Rel
Hum
%
Delta-T
°C
Wind Press
QNH
hPa
Press
MSL
hPa
Rain since
9am
mm
Dir  Spd
km/h
Gust
km/h
Spd
kts
Gust
kts
07/11:30pm 6.3 2.8 1.2 70 2.1 W 9 13 5 7 1025.7 1025.7 0.2
07/11:00pm 6.7 2.8 1.0 67 2.3 W 11 13 6 7 1025.8 1025.8 0.2
07/10:30pm 7.3 3.0 1.2 65 2.5 WSW 13 17 7 9 1025.8 1025.8 0.2
07/10:00pm 7.2 3.3 1.1 65 2.5 W 11 15 6 8 1025.8 1025.8 0.2
07/09:30pm 7.6 3.7 1.2 64 2.6 WSW 11 15 6 8 1025.7 1025.7 0.2
07/09:00pm 8.7 3.7 1.1 59 3.1 SW 17 20 9 11 1025.5 1025.5 0.2
07/08:30pm 9.1 4.4 0.6 55 3.5 SW 15 20 8 11 1025.3 1025.3 0.2
07/08:00pm 8.7 4.0 0.7 57 3.2 SW 15 19 8 10 1025.3 1025.3 0.2
07/07:30pm 8.2 3.4 0.2 57 3.2 SW 15 17 8 9 1025.1 1025.1 0.2
07/07:00pm 8.6 3.7 -0.2 54 3.5 SW 15 19 8 10 1024.8 1024.9 0.2
07/06:30pm 10.2 4.3 -0.6 47 4.3 SW 20 28 11 15 1024.6 1024.7 0.2
07/06:00pm 9.7 4.4 -0.8 48 4.2 SW 17 20 9 11 1024.1 1024.2 0.2
07/05:30pm 11.5 4.4 -1.6 40 5.2 SSW 26 39 14 21 1023.7 1023.7 0.2
07/05:00pm 12.4 4.4 -2.2 36 5.8 SSW 30 39 16 21 1023.3 1023.3 0.2
07/04:30pm 13.2 4.8 -2.3 34 6.2 SW 32 43 17 23 1023.0 1023.0 0.2
07/04:00pm 13.8 5.4 -2.6 32 6.5 SW 32 44 17 24 1022.7 1022.7 0.2
07/03:30pm 14.1 5.6 -1.5 34 6.4 SW 33 48 18 26 1022.7 1022.7 0.2
07/03:01pm 14.2 5.8 -1.4 34 6.4 SW 33 52 18 28 1022.7 1022.7 0.2
07/03:00pm 14.0 5.1 -1.6 34 6.3 SW 35 52 19 28 1022.7 1022.7 0.2
07/02:30pm 13.9 5.0 -2.1 33 6.5 SW 35 44 19 24 1022.7 1022.7 0.2
07/02:00pm 14.0 5.6 -0.8 36 6.1 SW 33 48 18 26 1022.7 1022.7 0.2
07/01:30pm 13.5 5.2 -0.5 38 5.8 SW 33 46 18 25 1022.7 1022.7 0.2
07/01:00pm 13.4 5.1 -0.3 39 5.7 SW 33 52 18 28 1022.8 1022.8 0.2
07/12:58pm 13.8 5.5 -0.3 38 5.9 SW 33 52 18 28 1022.8 1022.8 0.2
07/12:30pm 13.2 4.9 -0.1 40 5.6 SW 33 43 18 23 1023.0 1023.0 0.2
07/12:00pm 13.2 4.7 0.6 42 5.3 SW 35 48 19 26 1023.2 1023.2 0.2
07/11:30am 12.6 4.4 0.4 43 5.1 SW 33 44 18 24 1023.4 1023.4 0.2
07/11:00am 12.7 4.0 2.3 49 4.5 SW 37 46 20 25 1023.2 1023.2 0.2
07/10:30am 12.2 4.3 2.1 50 4.4 SW 33 44 18 24 1023.4 1023.4 0.2
07/10:00am 10.9 2.5 1.4 52 4.0 SW 35 48 19 26 1023.3 1023.3 0.2
07/09:30am 11.2 3.5 2.2 54 3.9 SW 32 44 17 24 1023.2 1023.2 0.0
07/09:00am 9.9 1.5 1.8 57 3.4 SW 35 50 19 27 1023.0 1023.0 0.0
07/08:30am 9.3 1.0 1.9 60 3.1 SW 35 48 19 26 1022.7 1022.7 0.0
07/08:00am 8.9 1.0 2.3 63 2.8 SW 33 43 18 23 1022.0 1022.0 0.0
07/07:30am 8.8 1.3 3.4 69 2.3 SW 32 48 17 26 1021.4 1021.4 0.0
07/07:00am 9.7 2.5 4.9 72 2.2 SW 32 44 17 24 1020.7 1020.7 0.0
07/06:30am 10.5 5.4 7.7 83 1.4 WSW 24 33 13 18 1019.9 1019.9 0.0
07/06:00am 10.7 6.2 8.5 86 1.1 WSW 22 30 12 16 1019.4 1019.4 0.0
07/05:30am 10.6 6.6 8.9 89 0.8 WSW 20 26 11 14 1019.2 1019.2 0.0
07/05:00am 10.1 5.7 9.0 93 0.5 WSW 22 30 12 16 1019.3 1019.3 0.0
07/04:30am 9.2 4.6 8.0 92 0.6 W 22 32 12 17 1019.1 1019.1 0.0
07/04:00am 9.5 5.5 6.8 83 1.3 WNW 17 20 9 11 1018.8 1018.8 0.0
07/03:30am 9.2 6.0 6.8 85 1.1 W 13 17 7 9 1018.9 1018.9 0.0
07/03:00am 8.9 6.1 6.9 87 0.9 WNW 11 15 6 8 1019.0 1019.0 0.0
07/02:30am 8.2 5.6 6.3 88 0.9 W 9 11 5 6 1019.3 1019.3 0.0
07/02:00am 7.7 4.7 6.2 90 0.7 WNW 11 11 6 6 1019.4 1019.4 0.0
07/01:30am 7.8 5.2 6.3 90 0.7 WNW 9 11 5 6 1019.9 1019.9 0.0
07/01:00am 8.2 5.7 6.5 89 0.8 W 9 15 5 8 1020.0 1020.0 0.0
07/12:30am 8.2 6.1 6.5 89 0.8 WNW 7 11 4 6 1020.0 1020.0 0.0
07/12:00am 8.1 5.6 6.4 89 0.8 WNW 9 9 5 5 1020.2 1020.2 0.0
 
Date/Time
EST
Temp
°C
App
Temp
°C
Dew
Point
°C
Rel
Hum
%
Delta-T
°C
Wind Press
QNH
hPa
Press
MSL
hPa
Rain since
9am
mm
Dir  Spd
km/h
Gust
km/h
Spd
kts
Gust
kts
06/11:30pm 8.5 6.0 6.6 88 0.9 W 9 11 5 6 1020.1 1020.1 0.0
06/11:00pm 8.8 6.7 6.6 86 1.0 W 7 9 4 5 1020.3 1020.3 0.0
06/10:30pm 8.8 6.7 6.6 86 1.0 WNW 7 9 4 5 1020.5 1020.5 0.0
06/10:00pm 9.0 6.9 6.6 85 1.1 W 7 9 4 5 1020.7 1020.7 0.0
06/09:30pm 10.5 8.1 6.8 78 1.8 WSW 9 11 5 6 1020.8 1020.8 0.0
06/09:00pm 11.1 8.3 7.0 76 2.0 WSW 11 13 6 7 1020.7 1020.7 0.0
06/08:30pm 12.1 8.6 7.4 73 2.3 SW 15 17 8 9 1020.7 1020.7 0.0
06/08:00pm 12.8 9.4 7.5 70 2.6 WSW 15 20 8 11 1020.5 1020.5 0.0
06/07:30pm 13.2 9.4 7.6 69 2.8 WSW 17 20 9 11 1020.2 1020.2 0.0
06/07:00pm 13.7 9.9 7.7 67 3.0 WSW 17 20 9 11 1020.2 1020.2 0.0
06/06:30pm 14.3 10.6 7.8 65 3.3 WSW 17 24 9 13 1020.1 1020.1 0.0

Other formats

Comma delimited format used in spreadsheet applications
http://www.bom.gov.au/fwo/IDN60801/IDN60801.95708.axf

JavaScript Object Notation format (JSON) in row-major order
http://www.bom.gov.au/fwo/IDN60801/IDN60801.95708.json

Data quality

Most of these data are generated automatically and are frequently updated. Quality checks on data are not normally performed. It is possible for incorrect values to appear. Refer to information at About Latest Weather Observations and please check the disclaimer before using these data.